createdAt,value
2017-08-16T00:00:01.222Z,1010.81
2017-08-16T00:00:41.806Z,1010.78
2017-08-16T00:01:22.395Z,1010.76
2017-08-16T00:02:02.975Z,1010.76
2017-08-16T00:02:43.550Z,1010.75
2017-08-16T00:03:24.130Z,1010.79
2017-08-16T00:04:04.702Z,1010.81
2017-08-16T00:04:45.279Z,1010.84
2017-08-16T00:05:25.858Z,1010.84
2017-08-16T00:06:06.440Z,1010.82
2017-08-16T00:06:47.007Z,1010.81
2017-08-16T00:07:27.586Z,1010.75
2017-08-16T00:08:08.145Z,1010.73
2017-08-16T00:08:48.718Z,1010.82
2017-08-16T00:09:29.293Z,1010.76
2017-08-16T00:10:09.879Z,1010.73
2017-08-16T00:10:50.457Z,1010.7
2017-08-16T00:11:31.042Z,1010.77
2017-08-16T00:12:11.634Z,1010.75
2017-08-16T00:12:52.219Z,1010.81
2017-08-16T00:13:32.802Z,1010.79
2017-08-16T00:14:13.382Z,1010.75
2017-08-16T00:14:53.963Z,1010.76
2017-08-16T00:15:34.538Z,1010.77
2017-08-16T00:16:15.116Z,1010.78
2017-08-16T00:16:55.692Z,1010.75
2017-08-16T00:17:36.277Z,1010.76
2017-08-16T00:18:16.855Z,1010.77
2017-08-16T00:18:57.442Z,1010.8
2017-08-16T00:19:38.010Z,1010.76
2017-08-16T00:20:18.594Z,1010.79
2017-08-16T00:20:59.177Z,1010.79
2017-08-16T00:21:39.744Z,1010.76
2017-08-16T00:22:20.320Z,1010.78
2017-08-16T00:23:00.882Z,1010.74
2017-08-16T00:23:41.461Z,1010.73
2017-08-16T00:24:22.026Z,1010.75
2017-08-16T00:25:02.602Z,1010.75
2017-08-16T00:25:43.202Z,1010.75
2017-08-16T00:26:30.399Z,1010.77
2017-08-16T00:27:10.974Z,1010.78
2017-08-16T00:27:51.545Z,1010.79
2017-08-16T00:28:32.133Z,1010.81
2017-08-16T00:29:12.717Z,1010.8
2017-08-16T00:29:53.294Z,1010.77
2017-08-16T00:30:33.864Z,1010.78
2017-08-16T00:31:14.446Z,1010.82
2017-08-16T00:31:55.030Z,1010.83
2017-08-16T00:32:35.593Z,1010.76
2017-08-16T00:33:16.190Z,1010.81
2017-08-16T00:33:56.786Z,1010.81
2017-08-16T00:34:37.352Z,1010.79
2017-08-16T00:35:17.931Z,1010.84
2017-08-16T00:35:58.501Z,1010.83
2017-08-16T00:36:39.073Z,1010.81
2017-08-16T00:37:19.637Z,1010.83
2017-08-16T00:38:00.214Z,1010.86
2017-08-16T00:38:40.795Z,1010.87
2017-08-16T00:39:21.392Z,1010.89
2017-08-16T00:40:01.963Z,1010.85
2017-08-16T00:40:42.553Z,1010.87
2017-08-16T00:41:23.126Z,1010.85
2017-08-16T00:42:03.710Z,1010.88
2017-08-16T00:42:44.290Z,1010.84
2017-08-16T00:43:24.863Z,1010.85
2017-08-16T00:44:05.439Z,1010.87
2017-08-16T00:44:46.023Z,1010.85
2017-08-16T00:45:26.593Z,1010.89
2017-08-16T00:46:07.166Z,1010.89
2017-08-16T00:46:47.736Z,1010.9
2017-08-16T00:47:28.310Z,1010.9
2017-08-16T00:48:08.881Z,1010.93
2017-08-16T00:48:49.446Z,1010.91
2017-08-16T00:49:30.026Z,1010.93
2017-08-16T00:50:10.591Z,1010.91
2017-08-16T00:50:51.167Z,1010.95
2017-08-16T00:51:31.750Z,1010.9
2017-08-16T00:52:12.327Z,1010.89
2017-08-16T00:52:52.890Z,1010.93
2017-08-16T00:53:33.450Z,1010.87
2017-08-16T00:54:14.016Z,1010.91
2017-08-16T00:54:54.606Z,1010.93
2017-08-16T00:55:35.178Z,1010.94
2017-08-16T00:56:15.743Z,1010.97
2017-08-16T00:56:56.320Z,1010.96
2017-08-16T00:57:36.907Z,1010.98
2017-08-16T00:58:17.479Z,1011.05
2017-08-16T00:58:58.060Z,1011.03
2017-08-16T00:59:38.637Z,1011.05
2017-08-16T01:00:19.222Z,1011.08
2017-08-16T01:00:59.786Z,1011.12
2017-08-16T01:01:40.356Z,1011.09
2017-08-16T01:02:20.943Z,1011.07
2017-08-16T01:03:01.521Z,1011.07
2017-08-16T01:03:42.093Z,1011.09
2017-08-16T01:04:22.660Z,1011.1
2017-08-16T01:05:03.254Z,1011.11
2017-08-16T01:05:43.824Z,1011.04
2017-08-16T01:06:24.401Z,1011.07
2017-08-16T01:07:04.966Z,1011.06
2017-08-16T01:07:45.555Z,1011.08
2017-08-16T01:08:26.132Z,1011.06
2017-08-16T01:09:06.718Z,1011.12
2017-08-16T01:09:47.297Z,1011.11
2017-08-16T01:10:27.862Z,1011.13
2017-08-16T01:11:08.437Z,1011.13
2017-08-16T01:11:49.011Z,1011.14
2017-08-16T01:12:29.581Z,1011.15
2017-08-16T01:13:10.172Z,1011.13
2017-08-16T01:13:50.741Z,1011.15
2017-08-16T01:14:31.317Z,1011.12
2017-08-16T01:15:11.923Z,1011.11
2017-08-16T01:15:52.491Z,1011.17
2017-08-16T01:16:33.069Z,1011.22
2017-08-16T01:17:13.645Z,1011.23
2017-08-16T01:17:54.221Z,1011.25
2017-08-16T01:18:34.785Z,1011.23
2017-08-16T01:19:15.356Z,1011.24
2017-08-16T01:19:55.951Z,1011.25
2017-08-16T01:20:36.527Z,1011.27
2017-08-16T01:21:17.100Z,1011.28
2017-08-16T01:21:57.720Z,1011.24
2017-08-16T01:22:38.290Z,1011.22
2017-08-16T01:23:18.873Z,1011.23
2017-08-16T01:23:59.449Z,1011.21
2017-08-16T01:24:40.018Z,1011.19
2017-08-16T01:25:20.603Z,1011.13
2017-08-16T01:26:01.176Z,1011.17
2017-08-16T01:26:41.750Z,1011.11
2017-08-16T01:27:22.335Z,1011.1
2017-08-16T01:28:02.907Z,1011.08
2017-08-16T01:28:43.474Z,1011.08
2017-08-16T01:29:24.051Z,1011.05
2017-08-16T01:30:04.621Z,1011.01
2017-08-16T01:30:45.191Z,1010.97
2017-08-16T01:31:25.764Z,1010.98
2017-08-16T01:32:06.337Z,1010.94
2017-08-16T01:32:46.920Z,1010.96
2017-08-16T01:33:27.496Z,1010.98
2017-08-16T01:34:08.080Z,1010.94
2017-08-16T01:34:48.644Z,1010.93
2017-08-16T01:35:29.209Z,1010.95
2017-08-16T01:36:09.777Z,1010.98
2017-08-16T01:36:50.366Z,1010.96
2017-08-16T01:37:30.969Z,1010.96
2017-08-16T01:38:11.542Z,1010.97
2017-08-16T01:38:52.116Z,1010.97
2017-08-16T01:39:32.685Z,1011.02
2017-08-16T01:40:13.259Z,1011.04
2017-08-16T01:40:53.837Z,1011.04
2017-08-16T01:41:34.413Z,1011.05
2017-08-16T01:42:14.992Z,1011.01
2017-08-16T01:42:55.582Z,1011.03
2017-08-16T01:43:36.160Z,1011.04
2017-08-16T01:44:16.742Z,1011.03
2017-08-16T01:44:57.324Z,1011
2017-08-16T01:45:37.901Z,1011.01
2017-08-16T01:46:18.472Z,1010.98
2017-08-16T01:46:59.050Z,1011.02
2017-08-16T01:47:39.641Z,1011.04
2017-08-16T01:48:20.237Z,1011.04
2017-08-16T01:49:00.809Z,1011.06
2017-08-16T01:49:41.385Z,1011.09
2017-08-16T01:50:21.956Z,1011.11
2017-08-16T01:51:02.530Z,1011.13
2017-08-16T01:51:43.103Z,1011.12
2017-08-16T01:52:23.704Z,1011.15
2017-08-16T01:53:04.318Z,1011.1
2017-08-16T01:53:44.867Z,1011.18
2017-08-16T01:54:25.475Z,1011.17
2017-08-16T01:55:06.056Z,1011.16
2017-08-16T01:55:46.654Z,1011.2
2017-08-16T01:56:27.227Z,1011.19
2017-08-16T01:57:07.823Z,1011.16
2017-08-16T01:57:48.399Z,1011.16
2017-08-16T01:58:28.982Z,1011.17
2017-08-16T01:59:09.569Z,1011.19
2017-08-16T01:59:50.123Z,1011.2
2017-08-16T02:00:30.710Z,1011.17
2017-08-16T02:01:11.277Z,1011.2
2017-08-16T02:01:51.884Z,1011.18
2017-08-16T02:02:32.473Z,1011.23
2017-08-16T02:03:13.047Z,1011.17
2017-08-16T02:03:53.628Z,1011.17
2017-08-16T02:04:34.212Z,1011.17
2017-08-16T02:05:14.782Z,1011.21
2017-08-16T02:05:55.358Z,1011.22
2017-08-16T02:06:35.929Z,1011.21
2017-08-16T02:07:16.491Z,1011.22
2017-08-16T02:07:57.064Z,1011.23
2017-08-16T02:08:37.640Z,1011.25
2017-08-16T02:09:18.220Z,1011.23
2017-08-16T02:09:58.795Z,1011.21
2017-08-16T02:10:39.393Z,1011.28
2017-08-16T02:11:19.967Z,1011.25
2017-08-16T02:12:00.554Z,1011.25
2017-08-16T02:12:41.134Z,1011.24
2017-08-16T02:13:21.700Z,1011.22
2017-08-16T02:14:02.277Z,1011.26
2017-08-16T02:14:42.849Z,1011.22
2017-08-16T02:15:23.426Z,1011.29
2017-08-16T02:16:04.007Z,1011.32
2017-08-16T02:16:44.592Z,1011.29
2017-08-16T02:17:25.158Z,1011.31
2017-08-16T02:18:05.736Z,1011.29
2017-08-16T02:18:46.312Z,1011.28
2017-08-16T02:19:26.900Z,1011.31
2017-08-16T02:20:07.489Z,1011.28
2017-08-16T02:20:48.082Z,1011.27
2017-08-16T02:21:28.664Z,1011.29
2017-08-16T02:22:09.240Z,1011.28
2017-08-16T02:22:49.811Z,1011.28
2017-08-16T02:23:30.389Z,1011.25
2017-08-16T02:24:10.960Z,1011.22
2017-08-16T02:24:51.551Z,1011.24
2017-08-16T02:25:32.110Z,1011.25
2017-08-16T02:26:12.712Z,1011.25
2017-08-16T02:26:53.286Z,1011.25
2017-08-16T02:27:33.856Z,1011.21
2017-08-16T02:28:14.424Z,1011.21
2017-08-16T02:28:54.989Z,1011.21
2017-08-16T02:29:35.569Z,1011.21
2017-08-16T02:30:16.136Z,1011.21
2017-08-16T02:30:56.713Z,1011.24
2017-08-16T02:31:37.274Z,1011.25
2017-08-16T02:32:17.849Z,1011.27
2017-08-16T02:32:58.432Z,1011.3
2017-08-16T02:33:39.013Z,1011.32
2017-08-16T02:34:19.586Z,1011.31
2017-08-16T02:35:00.169Z,1011.34
2017-08-16T02:35:40.741Z,1011.31
2017-08-16T02:36:21.320Z,1011.32
2017-08-16T02:37:01.892Z,1011.3
2017-08-16T02:37:42.487Z,1011.32
2017-08-16T02:38:23.050Z,1011.32
2017-08-16T02:39:03.621Z,1011.31
2017-08-16T02:39:44.209Z,1011.24
2017-08-16T02:40:24.806Z,1011.28
2017-08-16T02:41:05.376Z,1011.28
2017-08-16T02:41:45.943Z,1011.32
2017-08-16T02:42:26.541Z,1011.3
2017-08-16T02:43:07.137Z,1011.27
2017-08-16T02:43:47.706Z,1011.24
2017-08-16T02:44:28.276Z,1011.25
2017-08-16T02:45:08.851Z,1011.19
2017-08-16T02:45:49.437Z,1011.26
2017-08-16T02:46:30.004Z,1011.24
2017-08-16T02:47:10.596Z,1011.2
2017-08-16T02:47:51.204Z,1011.22
2017-08-16T02:48:31.776Z,1011.22
2017-08-16T02:49:12.358Z,1011.21
2017-08-16T02:49:52.962Z,1011.19
2017-08-16T02:50:33.518Z,1011.2
2017-08-16T02:51:14.114Z,1011.2
2017-08-16T02:51:54.682Z,1011.18
2017-08-16T02:52:35.263Z,1011.19
2017-08-16T02:53:15.853Z,1011.2
2017-08-16T02:53:56.427Z,1011.22
2017-08-16T02:54:36.993Z,1011.26
2017-08-16T02:55:17.560Z,1011.26
2017-08-16T02:55:58.125Z,1011.3
2017-08-16T02:56:38.725Z,1011.28
2017-08-16T02:57:19.271Z,1011.25
2017-08-16T02:57:59.852Z,1011.28
2017-08-16T02:58:40.423Z,1011.29
2017-08-16T02:59:20.993Z,1011.27
2017-08-16T03:00:01.571Z,1011.27
2017-08-16T03:00:42.181Z,1011.29
2017-08-16T03:01:22.736Z,1011.29
2017-08-16T03:02:03.326Z,1011.28
2017-08-16T03:02:43.892Z,1011.26
2017-08-16T03:03:24.465Z,1011.25
2017-08-16T03:04:05.037Z,1011.26
2017-08-16T03:04:45.631Z,1011.31
2017-08-16T03:05:26.213Z,1011.32
2017-08-16T03:06:06.870Z,1011.32
2017-08-16T03:06:47.451Z,1011.31
2017-08-16T03:07:28.038Z,1011.35
2017-08-16T03:08:08.630Z,1011.37
2017-08-16T03:08:49.252Z,1011.36
2017-08-16T03:09:29.840Z,1011.39
2017-08-16T03:10:10.419Z,1011.4
2017-08-16T03:10:50.997Z,1011.45
2017-08-16T03:11:31.571Z,1011.52
2017-08-16T03:12:12.164Z,1011.51
2017-08-16T03:12:52.759Z,1011.55
2017-08-16T03:13:33.329Z,1011.52
2017-08-16T03:14:13.907Z,1011.57
2017-08-16T03:14:54.475Z,1011.56
2017-08-16T03:15:35.066Z,1011.6
2017-08-16T03:16:15.644Z,1011.62
2017-08-16T03:16:56.219Z,1011.58
2017-08-16T03:17:36.819Z,1011.63
2017-08-16T03:18:17.410Z,1011.62
2017-08-16T03:18:58.023Z,1011.67
2017-08-16T03:19:38.613Z,1011.69
2017-08-16T03:20:19.193Z,1011.67
2017-08-16T03:20:59.766Z,1011.65
2017-08-16T03:21:40.341Z,1011.69
2017-08-16T03:22:20.923Z,1011.7
2017-08-16T03:23:01.523Z,1011.68
2017-08-16T03:23:42.114Z,1011.68
2017-08-16T03:24:22.688Z,1011.69
2017-08-16T03:25:03.281Z,1011.67
2017-08-16T03:25:43.853Z,1011.7
2017-08-16T03:26:24.439Z,1011.68
2017-08-16T03:27:05.001Z,1011.66
2017-08-16T03:27:45.578Z,1011.64
2017-08-16T03:28:26.168Z,1011.66
2017-08-16T03:29:06.765Z,1011.63
2017-08-16T03:29:47.336Z,1011.63
2017-08-16T03:30:27.923Z,1011.63
2017-08-16T03:31:08.540Z,1011.6
2017-08-16T03:31:49.120Z,1011.63
2017-08-16T03:32:29.714Z,1011.59
2017-08-16T03:33:10.296Z,1011.59
2017-08-16T03:33:50.876Z,1011.63
2017-08-16T03:34:31.437Z,1011.6
2017-08-16T03:35:12.050Z,1011.6
2017-08-16T03:35:52.631Z,1011.63
2017-08-16T03:36:33.234Z,1011.61
2017-08-16T03:37:13.805Z,1011.6
2017-08-16T03:37:54.380Z,1011.59
2017-08-16T03:38:34.939Z,1011.59
2017-08-16T03:39:15.525Z,1011.56
2017-08-16T03:39:56.109Z,1011.59
2017-08-16T03:40:36.665Z,1011.61
2017-08-16T03:41:17.277Z,1011.59
2017-08-16T03:41:57.852Z,1011.58
2017-08-16T03:42:38.430Z,1011.62
2017-08-16T03:43:19.011Z,1011.62
2017-08-16T03:43:59.578Z,1011.63
2017-08-16T03:44:40.148Z,1011.62
2017-08-16T03:45:20.724Z,1011.6
2017-08-16T03:46:01.331Z,1011.65
2017-08-16T03:46:41.913Z,1011.69
2017-08-16T03:47:22.508Z,1011.69
2017-08-16T03:48:03.090Z,1011.72
2017-08-16T03:48:43.657Z,1011.72
2017-08-16T03:49:24.245Z,1011.71
2017-08-16T03:50:04.825Z,1011.75
2017-08-16T03:50:45.413Z,1011.79
2017-08-16T03:51:25.998Z,1011.79
2017-08-16T03:52:06.590Z,1011.77
2017-08-16T03:52:47.146Z,1011.8
2017-08-16T03:53:27.722Z,1011.76
2017-08-16T03:54:08.282Z,1011.77
2017-08-16T03:54:48.854Z,1011.83
2017-08-16T03:55:29.432Z,1011.79
2017-08-16T03:56:10.003Z,1011.8
2017-08-16T03:56:50.584Z,1011.81
2017-08-16T03:57:31.164Z,1011.83
2017-08-16T03:58:11.732Z,1011.85
2017-08-16T03:58:52.326Z,1011.89
2017-08-16T03:59:32.944Z,1011.9
2017-08-16T04:00:13.532Z,1011.93
2017-08-16T04:00:54.117Z,1011.96
2017-08-16T04:01:34.719Z,1011.98
2017-08-16T04:02:15.296Z,1011.99
2017-08-16T04:02:55.874Z,1011.97
2017-08-16T04:03:36.470Z,1011.96
2017-08-16T04:04:17.050Z,1012.02
2017-08-16T04:04:57.631Z,1011.97
2017-08-16T04:05:38.206Z,1011.98
2017-08-16T04:06:18.792Z,1011.97
2017-08-16T04:06:59.382Z,1011.98
2017-08-16T04:07:39.975Z,1011.97
2017-08-16T04:08:20.556Z,1011.99
2017-08-16T04:09:01.136Z,1012
2017-08-16T04:09:41.717Z,1012
2017-08-16T04:10:22.320Z,1012.01
2017-08-16T04:11:02.901Z,1012.02
2017-08-16T04:11:43.465Z,1012.04
2017-08-16T04:12:24.057Z,1012.05
2017-08-16T04:13:04.647Z,1012.06
2017-08-16T04:13:45.219Z,1012.05
2017-08-16T04:14:25.804Z,1012.04
2017-08-16T04:15:06.419Z,1012.06
2017-08-16T04:15:46.978Z,1012.07
2017-08-16T04:16:27.538Z,1012.08
2017-08-16T04:17:08.119Z,1012.07
2017-08-16T04:17:48.713Z,1012.05
2017-08-16T04:18:29.289Z,1012.06
2017-08-16T04:19:09.866Z,1012.04
2017-08-16T04:19:50.463Z,1012.09
2017-08-16T04:20:31.045Z,1012.09
2017-08-16T04:21:11.624Z,1012.07
2017-08-16T04:21:52.236Z,1012.1
2017-08-16T04:22:32.810Z,1012.1
2017-08-16T04:23:13.379Z,1012.16
2017-08-16T04:23:53.966Z,1012.18
2017-08-16T04:24:34.557Z,1012.17
2017-08-16T04:25:15.136Z,1012.2
2017-08-16T04:25:55.720Z,1012.25
2017-08-16T04:26:36.296Z,1012.26
2017-08-16T04:27:16.914Z,1012.27
2017-08-16T04:27:57.481Z,1012.28
2017-08-16T04:28:38.047Z,1012.3
2017-08-16T04:29:18.635Z,1012.33
2017-08-16T04:29:59.212Z,1012.33
2017-08-16T04:30:39.803Z,1012.35
2017-08-16T04:31:20.378Z,1012.35
2017-08-16T04:32:00.952Z,1012.34
2017-08-16T04:32:41.554Z,1012.41
2017-08-16T04:33:22.096Z,1012.42
2017-08-16T04:34:02.688Z,1012.39
2017-08-16T04:34:43.259Z,1012.41
2017-08-16T04:35:23.829Z,1012.41
2017-08-16T04:36:04.420Z,1012.38
2017-08-16T04:36:45.032Z,1012.4
2017-08-16T04:37:25.623Z,1012.42
2017-08-16T04:38:06.200Z,1012.45
2017-08-16T04:38:46.804Z,1012.48
2017-08-16T04:39:27.380Z,1012.45
2017-08-16T04:40:07.944Z,1012.45
2017-08-16T04:40:48.518Z,1012.49
2017-08-16T04:41:29.077Z,1012.52
2017-08-16T04:42:09.671Z,1012.5
2017-08-16T04:42:50.240Z,1012.51
2017-08-16T04:43:30.825Z,1012.56
2017-08-16T04:44:11.374Z,1012.52
2017-08-16T04:44:51.941Z,1012.53
2017-08-16T04:45:32.515Z,1012.52
2017-08-16T04:46:13.149Z,1012.53
2017-08-16T04:46:53.720Z,1012.54
2017-08-16T04:47:34.334Z,1012.5
2017-08-16T04:48:14.926Z,1012.54
2017-08-16T04:48:55.511Z,1012.55
2017-08-16T04:49:36.088Z,1012.53
2017-08-16T04:50:16.662Z,1012.52
2017-08-16T04:50:57.246Z,1012.51
2017-08-16T04:51:37.820Z,1012.52
2017-08-16T04:52:18.434Z,1012.52
2017-08-16T04:52:58.993Z,1012.53
2017-08-16T04:53:39.555Z,1012.5
2017-08-16T04:54:20.146Z,1012.54
2017-08-16T04:55:00.695Z,1012.52
2017-08-16T04:55:41.273Z,1012.46
2017-08-16T04:56:21.849Z,1012.5
2017-08-16T04:57:02.431Z,1012.48
2017-08-16T04:57:43.002Z,1012.54
2017-08-16T04:58:23.592Z,1012.49
2017-08-16T04:59:04.193Z,1012.52
2017-08-16T04:59:44.795Z,1012.47
2017-08-16T05:00:25.328Z,1012.52
2017-08-16T05:01:05.943Z,1012.53
2017-08-16T05:01:46.509Z,1012.52
2017-08-16T05:02:27.094Z,1012.57
2017-08-16T05:03:07.677Z,1012.5
2017-08-16T05:03:48.267Z,1012.55
2017-08-16T05:04:28.852Z,1012.6
2017-08-16T05:05:09.412Z,1012.59
2017-08-16T05:05:50.005Z,1012.61
2017-08-16T05:06:30.592Z,1012.57
2017-08-16T05:07:11.149Z,1012.57
2017-08-16T05:07:51.727Z,1012.59
2017-08-16T05:08:32.298Z,1012.6
2017-08-16T05:09:12.880Z,1012.62
2017-08-16T05:09:53.482Z,1012.62
2017-08-16T05:10:34.046Z,1012.61
2017-08-16T05:11:14.625Z,1012.63
2017-08-16T05:11:55.222Z,1012.63
2017-08-16T05:12:35.810Z,1012.64
2017-08-16T05:13:16.389Z,1012.62
2017-08-16T05:13:56.968Z,1012.64
2017-08-16T05:14:37.560Z,1012.65
2017-08-16T05:15:18.131Z,1012.67
2017-08-16T05:15:58.709Z,1012.68
2017-08-16T05:16:39.284Z,1012.66
2017-08-16T05:17:19.847Z,1012.67
2017-08-16T05:18:00.423Z,1012.66
2017-08-16T05:18:41.015Z,1012.67
2017-08-16T05:19:21.602Z,1012.63
2017-08-16T05:20:02.166Z,1012.66
2017-08-16T05:20:42.753Z,1012.64
2017-08-16T05:21:23.326Z,1012.68
2017-08-16T05:22:03.890Z,1012.65
2017-08-16T05:22:44.458Z,1012.67
2017-08-16T05:23:25.032Z,1012.66
2017-08-16T05:24:05.615Z,1012.71
2017-08-16T05:24:46.200Z,1012.69
2017-08-16T05:25:26.768Z,1012.69
2017-08-16T05:26:07.331Z,1012.73
2017-08-16T05:26:47.903Z,1012.75
2017-08-16T05:27:28.478Z,1012.75
2017-08-16T05:28:09.067Z,1012.75
2017-08-16T05:28:49.641Z,1012.78
2017-08-16T05:29:30.220Z,1012.8
2017-08-16T05:30:10.821Z,1012.84
2017-08-16T05:30:51.390Z,1012.84
2017-08-16T05:31:31.967Z,1012.85
2017-08-16T05:32:12.540Z,1012.89
2017-08-16T05:32:53.115Z,1012.86
2017-08-16T05:33:33.698Z,1012.89
2017-08-16T05:34:14.290Z,1012.95
2017-08-16T05:34:54.855Z,1012.88
2017-08-16T05:35:35.443Z,1012.9
2017-08-16T05:36:16.025Z,1012.9
2017-08-16T05:36:56.606Z,1012.95
2017-08-16T05:37:37.183Z,1012.95
2017-08-16T05:38:17.748Z,1012.95
2017-08-16T05:38:58.332Z,1012.97
2017-08-16T05:39:38.913Z,1012.99
2017-08-16T05:40:19.497Z,1013.04
2017-08-16T05:41:00.059Z,1013
2017-08-16T05:41:40.630Z,1013.05
2017-08-16T05:42:21.206Z,1013.02
2017-08-16T05:43:01.766Z,1013.04
2017-08-16T05:43:42.370Z,1013.05
2017-08-16T05:44:22.953Z,1013.06
2017-08-16T05:45:03.532Z,1013.04
2017-08-16T05:45:44.127Z,1013.05
2017-08-16T05:46:24.741Z,1013.07
2017-08-16T05:47:05.301Z,1013.07
2017-08-16T05:47:45.874Z,1013.13
2017-08-16T05:48:26.443Z,1013.09
2017-08-16T05:49:07.020Z,1013.14
2017-08-16T05:49:47.586Z,1013.13
2017-08-16T05:50:28.183Z,1013.16
2017-08-16T05:51:08.746Z,1013.18
2017-08-16T05:51:49.316Z,1013.2
2017-08-16T05:52:29.897Z,1013.24
2017-08-16T05:53:10.479Z,1013.25
2017-08-16T05:53:51.046Z,1013.2
2017-08-16T05:54:31.624Z,1013.26
2017-08-16T05:55:12.191Z,1013.25
2017-08-16T05:55:52.782Z,1013.27
2017-08-16T05:56:33.375Z,1013.29
2017-08-16T05:57:13.988Z,1013.29
2017-08-16T05:57:54.532Z,1013.3
2017-08-16T05:58:35.116Z,1013.35
2017-08-16T05:59:15.717Z,1013.34
2017-08-16T05:59:56.292Z,1013.32
2017-08-16T06:00:36.865Z,1013.33
2017-08-16T06:01:17.439Z,1013.37
2017-08-16T06:01:58.014Z,1013.36
2017-08-16T06:02:38.598Z,1013.39
2017-08-16T06:03:19.162Z,1013.38
2017-08-16T06:03:59.739Z,1013.42
2017-08-16T06:04:40.337Z,1013.42
2017-08-16T06:05:20.900Z,1013.41
2017-08-16T06:06:01.481Z,1013.4
2017-08-16T06:06:42.064Z,1013.4
2017-08-16T06:07:22.638Z,1013.39
2017-08-16T06:08:03.213Z,1013.4
2017-08-16T06:08:43.803Z,1013.42
2017-08-16T06:09:24.373Z,1013.4
2017-08-16T06:10:04.963Z,1013.41
2017-08-16T06:10:45.541Z,1013.42
2017-08-16T06:11:26.122Z,1013.44
2017-08-16T06:12:06.713Z,1013.41
2017-08-16T06:12:47.299Z,1013.44
2017-08-16T06:13:27.874Z,1013.43
2017-08-16T06:14:08.454Z,1013.44
2017-08-16T06:14:49.023Z,1013.46
2017-08-16T06:15:29.622Z,1013.54
2017-08-16T06:16:10.211Z,1013.46
2017-08-16T06:16:50.782Z,1013.52
2017-08-16T06:17:31.362Z,1013.49
2017-08-16T06:18:11.941Z,1013.52
2017-08-16T06:18:52.530Z,1013.48
2017-08-16T06:19:33.103Z,1013.56
2017-08-16T06:20:13.686Z,1013.59
2017-08-16T06:20:54.283Z,1013.55
2017-08-16T06:21:34.873Z,1013.62
2017-08-16T06:22:15.453Z,1013.63
2017-08-16T06:22:56.033Z,1013.62
2017-08-16T06:23:36.618Z,1013.6
2017-08-16T06:24:17.240Z,1013.57
2017-08-16T06:24:57.818Z,1013.58
2017-08-16T06:25:38.380Z,1013.62
2017-08-16T06:26:18.950Z,1013.64
2017-08-16T06:26:59.518Z,1013.65
2017-08-16T06:27:40.097Z,1013.62
2017-08-16T06:28:20.673Z,1013.71
2017-08-16T06:29:01.253Z,1013.66
2017-08-16T06:29:41.845Z,1013.67
2017-08-16T06:30:22.430Z,1013.66
2017-08-16T06:31:03.049Z,1013.66
2017-08-16T06:31:43.609Z,1013.7
2017-08-16T06:32:24.186Z,1013.7
2017-08-16T06:33:04.772Z,1013.67
2017-08-16T06:33:45.350Z,1013.69
2017-08-16T06:34:25.937Z,1013.71
2017-08-16T06:35:06.498Z,1013.7
2017-08-16T06:35:47.097Z,1013.72
2017-08-16T06:36:27.660Z,1013.72
2017-08-16T06:37:08.240Z,1013.73
2017-08-16T06:37:48.826Z,1013.7
2017-08-16T06:38:29.410Z,1013.75
2017-08-16T06:39:09.985Z,1013.74
2017-08-16T06:39:50.564Z,1013.76
2017-08-16T06:40:31.140Z,1013.74
2017-08-16T06:41:11.721Z,1013.76
2017-08-16T06:41:52.292Z,1013.74
2017-08-16T06:42:32.872Z,1013.74
2017-08-16T06:43:13.447Z,1013.78
2017-08-16T06:43:54.059Z,1013.8
2017-08-16T06:44:34.663Z,1013.85
2017-08-16T06:45:15.249Z,1013.82
2017-08-16T06:45:55.825Z,1013.84
2017-08-16T06:46:36.393Z,1013.83
2017-08-16T06:47:16.968Z,1013.9
2017-08-16T06:47:57.533Z,1013.91
2017-08-16T06:48:38.125Z,1013.94
2017-08-16T06:49:18.705Z,1013.92
2017-08-16T06:49:59.279Z,1013.93
2017-08-16T06:50:39.867Z,1013.97
2017-08-16T06:51:20.441Z,1013.98
2017-08-16T06:52:01.033Z,1013.98
2017-08-16T06:52:41.621Z,1014.02
2017-08-16T06:53:22.199Z,1014.02
2017-08-16T06:54:02.789Z,1014.04
2017-08-16T06:54:43.380Z,1014.06
2017-08-16T06:55:23.942Z,1014.07
2017-08-16T06:56:04.550Z,1014.06
2017-08-16T06:56:45.137Z,1014.04
2017-08-16T06:57:25.718Z,1014.04
2017-08-16T06:58:06.291Z,1014.05
2017-08-16T06:58:46.873Z,1014.07
2017-08-16T06:59:27.448Z,1014.06
2017-08-16T07:00:08.050Z,1014.07
2017-08-16T07:00:48.650Z,1014.13
2017-08-16T07:01:29.224Z,1014.04
2017-08-16T07:02:09.800Z,1014.11
2017-08-16T07:02:50.400Z,1014.11
2017-08-16T07:03:30.966Z,1014.12
2017-08-16T07:04:11.541Z,1014.11
2017-08-16T07:04:52.118Z,1014.17
2017-08-16T07:05:32.685Z,1014.12
2017-08-16T07:06:13.252Z,1014.16
2017-08-16T07:06:53.866Z,1014.16
2017-08-16T07:07:34.442Z,1014.15
2017-08-16T07:08:15.017Z,1014.17
2017-08-16T07:08:55.615Z,1014.17
2017-08-16T07:09:36.222Z,1014.17
2017-08-16T07:10:16.815Z,1014.16
2017-08-16T07:10:57.407Z,1014.19
2017-08-16T07:11:37.993Z,1014.18
2017-08-16T07:12:18.570Z,1014.24
2017-08-16T07:12:59.157Z,1014.17
2017-08-16T07:13:39.735Z,1014.16
2017-08-16T07:14:20.326Z,1014.19
2017-08-16T07:15:00.910Z,1014.21
2017-08-16T07:15:41.481Z,1014.24
2017-08-16T07:16:22.082Z,1014.2
2017-08-16T07:17:02.663Z,1014.23
2017-08-16T07:17:43.247Z,1014.22
2017-08-16T07:18:23.832Z,1014.27
2017-08-16T07:19:04.433Z,1014.25
2017-08-16T07:19:44.997Z,1014.31
2017-08-16T07:20:25.561Z,1014.3
2017-08-16T07:21:06.140Z,1014.31
2017-08-16T07:21:46.700Z,1014.33
2017-08-16T07:22:27.275Z,1014.36
2017-08-16T07:23:07.875Z,1014.39
2017-08-16T07:23:48.475Z,1014.37
2017-08-16T07:24:29.062Z,1014.42
2017-08-16T07:25:09.649Z,1014.38
2017-08-16T07:25:50.217Z,1014.39
2017-08-16T07:26:30.808Z,1014.38
2017-08-16T07:27:11.410Z,1014.41
2017-08-16T07:27:51.986Z,1014.42
2017-08-16T07:28:32.572Z,1014.41
2017-08-16T07:29:13.164Z,1014.44
2017-08-16T07:29:53.760Z,1014.42
2017-08-16T07:30:34.333Z,1014.47
2017-08-16T07:31:14.941Z,1014.48
2017-08-16T07:31:55.518Z,1014.43
2017-08-16T07:32:36.091Z,1014.43
2017-08-16T07:33:16.664Z,1014.46
2017-08-16T07:33:57.232Z,1014.5
2017-08-16T07:34:37.822Z,1014.55
2017-08-16T07:35:18.400Z,1014.47
2017-08-16T07:35:58.963Z,1014.47
2017-08-16T07:36:39.564Z,1014.53
2017-08-16T07:37:20.134Z,1014.52
2017-08-16T07:38:00.715Z,1014.54
2017-08-16T07:38:41.309Z,1014.62
2017-08-16T07:39:21.921Z,1014.59
2017-08-16T07:40:02.478Z,1014.62
2017-08-16T07:40:43.055Z,1014.64
2017-08-16T07:41:23.615Z,1014.65
2017-08-16T07:42:04.191Z,1014.63
2017-08-16T07:42:44.753Z,1014.68
2017-08-16T07:43:25.330Z,1014.68
2017-08-16T07:44:05.923Z,1014.7
2017-08-16T07:44:46.532Z,1014.71
2017-08-16T07:45:27.111Z,1014.74
2017-08-16T07:46:07.687Z,1014.76
2017-08-16T07:46:48.260Z,1014.74
2017-08-16T07:47:28.840Z,1014.77
2017-08-16T07:48:09.421Z,1014.81
2017-08-16T07:48:50.026Z,1014.76
2017-08-16T07:49:30.632Z,1014.78
2017-08-16T07:50:11.209Z,1014.85
2017-08-16T07:50:51.821Z,1014.85
2017-08-16T07:51:32.401Z,1014.83
2017-08-16T07:52:13.004Z,1014.84
2017-08-16T07:52:53.587Z,1014.9
2017-08-16T07:53:34.175Z,1014.9
2017-08-16T07:54:14.792Z,1014.9
2017-08-16T07:54:55.388Z,1014.96
2017-08-16T07:55:35.955Z,1014.96
2017-08-16T07:56:16.547Z,1014.98
2017-08-16T07:56:57.126Z,1015.01
2017-08-16T07:57:37.707Z,1014.99
2017-08-16T07:58:18.301Z,1014.99
2017-08-16T07:58:58.873Z,1015.06
2017-08-16T07:59:39.459Z,1015.09
2017-08-16T08:00:20.036Z,1015.12
2017-08-16T08:01:00.629Z,1015.15
2017-08-16T08:01:41.211Z,1015.18
2017-08-16T08:02:21.789Z,1015.17
2017-08-16T08:03:02.382Z,1015.2
2017-08-16T08:03:42.956Z,1015.25
2017-08-16T08:04:23.534Z,1015.23
2017-08-16T08:05:04.118Z,1015.21
2017-08-16T08:05:44.730Z,1015.25
2017-08-16T08:06:25.292Z,1015.25
2017-08-16T08:07:05.882Z,1015.24
2017-08-16T08:07:46.460Z,1015.27
2017-08-16T08:08:27.029Z,1015.33
2017-08-16T08:09:07.608Z,1015.32
2017-08-16T08:09:48.173Z,1015.34
2017-08-16T08:10:28.761Z,1015.33
2017-08-16T08:11:09.329Z,1015.38
2017-08-16T08:11:49.893Z,1015.34
2017-08-16T08:12:30.462Z,1015.36